createdAt,value
2019-04-14T00:02:01.002Z,48.67
2019-04-14T00:04:35.842Z,48.68
2019-04-14T00:07:05.839Z,48.82
2019-04-14T00:09:37.928Z,48.90
2019-04-14T00:12:10.514Z,49.03
2019-04-14T00:14:42.439Z,49.27
2019-04-14T00:17:13.012Z,49.29
2019-04-14T00:19:43.480Z,49.33
2019-04-14T00:22:14.100Z,49.40
2019-04-14T00:24:44.775Z,49.45
2019-04-14T00:27:15.014Z,49.59
2019-04-14T00:29:45.791Z,49.70
2019-04-14T00:32:16.298Z,49.83
2019-04-14T00:35:23.744Z,49.82
2019-04-14T00:38:28.413Z,49.96
2019-04-14T00:41:17.995Z,50.13
2019-04-14T00:44:03.587Z,50.15
2019-04-14T00:46:40.940Z,50.30
2019-04-14T00:49:11.476Z,50.41
2019-04-14T00:51:42.439Z,50.60
2019-04-14T00:54:13.213Z,50.82
2019-04-14T00:56:43.392Z,50.83
2019-04-14T00:59:13.665Z,50.96
2019-04-14T01:01:43.850Z,51.10
2019-04-14T01:04:14.383Z,51.05
2019-04-14T01:06:44.841Z,51.05
2019-04-14T01:09:15.408Z,51.10
2019-04-14T01:11:46.407Z,51.19
2019-04-14T01:14:16.955Z,51.27
2019-04-14T01:16:47.407Z,51.27
2019-04-14T01:19:17.740Z,51.35
2019-04-14T01:21:48.178Z,51.43
2019-04-14T01:24:18.566Z,51.50
2019-04-14T01:26:48.885Z,51.71
2019-04-14T01:29:19.040Z,51.71
2019-04-14T01:31:49.372Z,51.93
2019-04-14T01:34:19.551Z,51.97
2019-04-14T01:36:49.787Z,52.12
2019-04-14T01:39:19.952Z,52.40
2019-04-14T01:41:50.187Z,52.40
2019-04-14T01:44:22.004Z,52.58
2019-04-14T01:46:54.250Z,52.55
2019-04-14T01:49:24.748Z,52.48
2019-04-14T01:52:25.612Z,52.48
2019-04-14T01:55:26.916Z,52.60
2019-04-14T01:58:27.388Z,52.58
2019-04-14T02:01:17.073Z,52.78
2019-04-14T02:03:47.831Z,52.77
2019-04-14T02:06:18.365Z,52.81
2019-04-14T02:08:48.591Z,52.79
2019-04-14T02:11:20.472Z,52.92
2019-04-14T02:13:50.949Z,52.81
2019-04-14T02:16:30.279Z,52.81
2019-04-14T02:18:54.909Z,53.00
2019-04-14T02:21:25.868Z,53.00
2019-04-14T02:23:56.180Z,52.95
2019-04-14T02:26:26.419Z,52.95
2019-04-14T02:28:57.174Z,52.85
2019-04-14T02:31:57.052Z,52.89
2019-04-14T02:37:08.087Z,52.97
2019-04-14T02:39:31.104Z,53.06
2019-04-14T02:44:38.304Z,53.26
2019-04-14T02:47:27.712Z,53.40
2019-04-14T02:49:44.227Z,53.53
2019-04-14T02:52:12.070Z,53.67
2019-04-14T02:57:17.270Z,53.93
2019-04-14T02:59:42.990Z,54.08
2019-04-14T03:04:51.021Z,53.95
2019-04-14T03:09:48.669Z,53.94
2019-04-14T03:15:01.048Z,53.87
2019-04-14T03:18:26.382Z,53.81
2019-04-14T03:20:55.623Z,53.71
2019-04-14T03:29:05.424Z,53.36
2019-04-14T03:32:03.878Z,53.40
2019-04-14T03:39:17.578Z,53.66
2019-04-14T03:41:45.189Z,53.86
2019-04-14T03:44:28.368Z,54.16
2019-04-14T03:47:08.683Z,54.56
2019-04-14T03:49:28.349Z,54.90
2019-04-14T03:52:26.906Z,54.91
2019-04-14T03:54:20.101Z,54.91
2019-04-14T03:56:53.559Z,55.32
2019-04-14T03:59:24.132Z,55.36
2019-04-14T04:01:56.432Z,55.28
2019-04-14T04:04:27.985Z,54.80
2019-04-14T04:06:59.524Z,54.80
2019-04-14T04:09:34.396Z,54.39
2019-04-14T04:12:05.295Z,54.07
2019-04-14T04:14:35.792Z,53.48
2019-04-14T04:17:23.372Z,53.48
2019-04-14T04:20:13.199Z,53.24
2019-04-14T04:23:01.519Z,52.61
2019-04-14T04:25:39.955Z,52.13
2019-04-14T04:28:34.551Z,51.98
2019-04-14T04:31:08.893Z,51.89
2019-04-14T04:34:01.070Z,51.54
2019-04-14T04:36:53.087Z,51.35
2019-04-14T04:39:30.074Z,51.24
2019-04-14T04:42:00.506Z,51.05
2019-04-14T04:44:31.528Z,51.05
2019-04-14T04:47:03.400Z,51.00
2019-04-14T04:49:34.165Z,50.83
2019-04-14T04:52:04.303Z,50.40
2019-04-14T04:54:34.411Z,49.92
2019-04-14T04:57:04.668Z,49.39
2019-04-14T04:59:34.928Z,48.85
2019-04-14T05:02:04.814Z,48.72
2019-04-14T05:04:35.124Z,48.73
2019-04-14T05:07:05.653Z,48.53
2019-04-14T05:10:02.701Z,48.53
2019-04-14T05:12:41.348Z,48.29
2019-04-14T05:15:40.328Z,47.92
2019-04-14T05:18:17.885Z,47.81
2019-04-14T05:20:48.788Z,47.23
2019-04-14T05:23:19.196Z,47.23
2019-04-14T05:25:49.582Z,46.51
2019-04-14T05:28:20.287Z,46.34
2019-04-14T05:30:50.460Z,46.44
2019-04-14T05:33:23.220Z,46.23
2019-04-14T05:47:58.923Z,45.47
2019-04-14T05:50:29.249Z,45.30
2019-04-14T05:53:00.033Z,45.40
2019-04-14T05:55:31.178Z,45.53
2019-04-14T05:58:01.473Z,45.79
2019-04-14T06:00:32.069Z,46.02
2019-04-14T06:03:03.730Z,45.35
2019-04-14T06:05:34.081Z,45.25
2019-04-14T06:08:04.307Z,44.97
2019-04-14T06:10:34.764Z,45.41
2019-04-14T06:13:04.944Z,45.48
2019-04-14T06:15:36.227Z,45.42
2019-04-14T06:18:06.742Z,44.95
2019-04-14T06:20:37.132Z,44.70
2019-04-14T06:23:07.251Z,44.51
2019-04-14T06:25:37.301Z,44.38
2019-04-14T06:28:07.546Z,44.39
2019-04-14T06:30:55.104Z,44.40
2019-04-14T06:33:40.649Z,44.15
2019-04-14T06:36:29.062Z,44.13
2019-04-14T06:39:08.522Z,44.16
2019-04-14T06:41:38.770Z,43.92
2019-04-14T06:44:09.031Z,43.75
2019-04-14T06:46:39.550Z,43.81
2019-04-14T06:49:09.992Z,43.59
2019-04-14T06:51:40.400Z,43.35
2019-04-14T06:54:10.604Z,43.34
2019-04-14T06:56:41.922Z,43.00
2019-04-14T06:59:11.951Z,42.79
2019-04-14T07:01:42.417Z,42.56
2019-04-14T07:04:12.599Z,42.23
2019-04-14T07:06:42.571Z,41.88
2019-04-14T07:09:13.044Z,41.72
2019-04-14T07:11:43.246Z,41.73
2019-04-14T07:14:13.337Z,41.63
2019-04-14T07:16:43.515Z,41.55
2019-04-14T07:19:13.807Z,41.64
2019-04-14T07:21:43.922Z,41.90
2019-04-14T07:24:14.260Z,41.89
2019-04-14T07:26:44.459Z,41.89
2019-04-14T07:29:14.913Z,41.75
2019-04-14T07:32:12.934Z,41.96
2019-04-14T07:34:56.910Z,42.04
2019-04-14T07:37:43.895Z,41.90
2019-04-14T07:40:30.773Z,42.15
2019-04-14T07:43:15.493Z,41.94
2019-04-14T07:45:56.358Z,41.86
2019-04-14T07:48:36.641Z,41.45
2019-04-14T07:51:40.710Z,41.16
2019-04-14T07:54:41.757Z,40.80
2019-04-14T07:57:33.645Z,40.62
2019-04-14T08:00:13.508Z,40.56
2019-04-14T08:03:00.770Z,40.79
2019-04-14T08:05:34.424Z,40.65
2019-04-14T08:08:04.708Z,40.59
2019-04-14T08:10:35.363Z,40.91
2019-04-14T08:13:05.694Z,41.00
2019-04-14T08:15:36.088Z,40.46
2019-04-14T08:18:06.217Z,40.46
2019-04-14T08:20:37.079Z,40.47
2019-04-14T08:23:07.453Z,40.51
2019-04-14T08:25:37.939Z,40.56
2019-04-14T08:28:08.828Z,40.59
2019-04-14T08:30:39.825Z,40.41
2019-04-14T08:33:10.674Z,40.41
2019-04-14T08:35:41.162Z,40.06
2019-04-14T08:38:11.395Z,40.13
2019-04-14T08:40:41.425Z,40.16
2019-04-14T08:43:34.086Z,40.06
2019-04-14T08:46:31.842Z,39.80
2019-04-14T08:49:26.806Z,39.73
2019-04-14T08:52:20.996Z,39.73
2019-04-14T08:55:09.935Z,39.83
2019-04-14T08:57:57.635Z,39.83
2019-04-14T09:00:42.896Z,40.24
2019-04-14T09:03:23.107Z,40.40
2019-04-14T09:06:17.270Z,40.34
2019-04-14T09:09:11.734Z,40.15
2019-04-14T09:11:47.019Z,39.99
2019-04-14T09:14:17.263Z,40.45
2019-04-14T09:16:49.179Z,40.43
2019-04-14T09:19:19.622Z,40.08
2019-04-14T09:21:49.705Z,40.08
2019-04-14T09:24:20.393Z,40.63
2019-04-14T09:26:53.074Z,41.01
2019-04-14T09:29:23.282Z,41.51
2019-04-14T09:31:54.780Z,41.62
2019-04-14T09:34:24.734Z,41.77
2019-04-14T09:36:55.214Z,42.14
2019-04-14T09:39:25.321Z,42.28
2019-04-14T09:41:57.263Z,42.10
2019-04-14T09:44:27.974Z,41.77
2019-04-14T09:46:57.901Z,41.48
2019-04-14T09:49:27.947Z,41.66
2019-04-14T09:51:59.430Z,42.38
2019-04-14T09:54:29.664Z,42.60
2019-04-14T09:57:03.226Z,42.76
2019-04-14T09:59:33.275Z,42.64
2019-04-14T10:02:03.530Z,42.49
2019-04-14T10:04:33.794Z,42.56
2019-04-14T10:07:04.148Z,42.14
2019-04-14T10:09:34.382Z,41.64
2019-04-14T10:12:04.615Z,41.70
2019-04-14T10:14:44.474Z,42.05
2019-04-14T10:17:14.589Z,42.27
2019-04-14T10:19:47.737Z,42.99
2019-04-14T10:22:33.169Z,42.99
2019-04-14T10:24:52.535Z,43.32
2019-04-14T10:27:22.919Z,43.81
2019-04-14T10:29:53.140Z,43.32
2019-04-14T10:32:24.224Z,43.21
2019-04-14T10:34:55.530Z,43.50
2019-04-14T10:37:25.397Z,44.22
2019-04-14T10:39:55.885Z,45.03
2019-04-14T10:42:25.790Z,46.38
2019-04-14T10:44:56.026Z,46.38
2019-04-14T10:47:26.111Z,46.52
2019-04-14T10:49:56.320Z,47.05
2019-04-14T10:52:26.197Z,47.48
2019-04-14T10:54:56.044Z,47.79
2019-04-14T10:57:26.139Z,48.48
2019-04-14T10:59:56.603Z,49.24
2019-04-14T11:02:26.836Z,50.09
2019-04-14T11:04:57.058Z,50.87
2019-04-14T11:07:29.421Z,51.31
2019-04-14T11:09:59.641Z,52.57
2019-04-14T11:12:29.754Z,53.50
2019-04-14T11:15:00.462Z,54.44
2019-04-14T11:17:31.680Z,54.79
2019-04-14T11:20:01.972Z,55.15
2019-04-14T11:22:32.373Z,55.91
2019-04-14T11:25:02.341Z,55.91
2019-04-14T11:27:34.107Z,56.47
2019-04-14T11:30:04.735Z,56.76
2019-04-14T11:32:56.752Z,57.04
2019-04-14T11:35:39.659Z,56.95
2019-04-14T11:38:16.029Z,57.11
2019-04-14T11:40:50.967Z,57.38
2019-04-14T11:43:20.456Z,57.32
2019-04-14T11:45:50.644Z,57.27
2019-04-14T11:48:21.280Z,56.79
2019-04-14T11:50:51.213Z,56.66
2019-04-14T11:53:21.709Z,56.42
2019-04-14T11:55:51.691Z,56.30
2019-04-14T11:58:22.268Z,56.75
2019-04-14T12:01:11.788Z,56.81
2019-04-14T12:04:00.919Z,56.81
2019-04-14T12:06:43.415Z,56.96
2019-04-14T12:09:22.686Z,57.25
2019-04-14T12:11:53.976Z,57.38
2019-04-14T12:14:24.481Z,57.53
2019-04-14T12:16:54.423Z,58.27
2019-04-14T12:19:24.644Z,58.87
2019-04-14T12:22:07.453Z,59.05
2019-04-14T12:24:30.198Z,59.11
2019-04-14T12:27:00.419Z,59.11
2019-04-14T12:29:30.511Z,59.94
2019-04-14T12:32:01.796Z,60.41
2019-04-14T12:34:31.968Z,61.02
2019-04-14T12:37:02.138Z,62.09
2019-04-14T12:39:32.859Z,62.09
2019-04-14T12:42:37.417Z,62.52
2019-04-14T12:45:26.329Z,63.21
2019-04-14T12:48:15.322Z,63.84
2019-04-14T12:50:53.187Z,64.47
2019-04-14T12:53:23.560Z,65.00
2019-04-14T12:55:53.561Z,66.12
2019-04-14T12:58:32.086Z,66.12
2019-04-14T13:01:06.246Z,66.88
2019-04-14T13:03:41.913Z,66.88
2019-04-14T13:06:11.851Z,67.33
2019-04-14T13:08:41.855Z,67.71
2019-04-14T13:11:11.903Z,68.00
2019-04-14T13:13:42.016Z,68.53
2019-04-14T13:16:12.056Z,68.76
2019-04-14T13:18:42.611Z,69.07
2019-04-14T13:21:13.260Z,69.14
2019-04-14T13:23:43.372Z,69.58
2019-04-14T13:26:13.758Z,69.71
2019-04-14T13:28:43.957Z,70.27
2019-04-14T13:31:14.295Z,69.97
2019-04-14T13:33:44.453Z,70.17
2019-04-14T13:36:14.596Z,70.62
2019-04-14T13:38:45.571Z,70.55
2019-04-14T13:41:15.509Z,70.79
2019-04-14T13:43:46.011Z,70.68
2019-04-14T13:46:15.870Z,70.78
2019-04-14T13:48:46.085Z,70.73
2019-04-14T13:51:16.032Z,70.79
2019-04-14T13:53:46.160Z,71.14
2019-04-14T13:56:16.218Z,71.10
2019-04-14T13:58:46.324Z,71.30
2019-04-14T14:01:16.535Z,71.49
2019-04-14T14:03:46.749Z,71.44
2019-04-14T14:06:17.116Z,71.47
2019-04-14T14:08:47.328Z,71.57
2019-04-14T14:11:54.503Z,71.74
2019-04-14T14:14:46.798Z,71.83
2019-04-14T14:17:26.274Z,71.78
2019-04-14T14:20:11.218Z,71.72
2019-04-14T14:22:59.560Z,71.77
2019-04-14T14:25:33.251Z,71.81
2019-04-14T14:28:02.369Z,71.92
2019-04-14T14:30:31.521Z,71.88
2019-04-14T14:33:05.166Z,71.97
2019-04-14T14:35:35.883Z,72.09
2019-04-14T14:38:06.480Z,72.22
2019-04-14T14:40:36.565Z,72.17
2019-04-14T14:43:07.046Z,72.14
2019-04-14T14:45:47.074Z,72.16
2019-04-14T14:48:29.417Z,72.09
2019-04-14T14:51:21.537Z,72.31
2019-04-14T14:53:51.706Z,72.42
2019-04-14T14:56:22.002Z,72.75
2019-04-14T14:58:52.098Z,72.92
2019-04-14T15:01:22.461Z,73.05
2019-04-14T15:03:52.952Z,73.13
2019-04-14T15:06:23.336Z,73.24
2019-04-14T15:08:53.568Z,73.46
2019-04-14T15:11:24.220Z,73.64
2019-04-14T15:13:54.434Z,73.77
2019-04-14T15:16:24.908Z,73.77
2019-04-14T15:18:55.530Z,73.61
2019-04-14T15:21:25.788Z,73.49
2019-04-14T15:23:56.240Z,73.39
2019-04-14T15:26:26.873Z,73.83
2019-04-14T15:28:59.152Z,73.73
2019-04-14T15:31:29.551Z,73.65
2019-04-14T15:34:00.012Z,73.82
2019-04-14T15:36:30.263Z,73.79
2019-04-14T15:39:00.674Z,74.00
2019-04-14T15:41:32.462Z,74.21
2019-04-14T15:44:02.684Z,74.13
2019-04-14T15:46:34.462Z,74.35
2019-04-14T15:49:04.961Z,74.43
2019-04-14T15:51:35.486Z,74.59
2019-04-14T15:54:05.977Z,74.66
2019-04-14T15:56:55.711Z,74.73
2019-04-14T15:59:41.644Z,74.66
2019-04-14T16:02:44.124Z,74.64
2019-04-14T16:05:32.013Z,74.70
2019-04-14T16:08:09.557Z,74.78
2019-04-14T16:11:05.353Z,74.87
2019-04-14T16:13:46.814Z,75.04
2019-04-14T16:16:24.428Z,75.30
2019-04-14T16:19:11.249Z,75.08
2019-04-14T16:21:42.281Z,75.17
2019-04-14T16:24:12.705Z,75.21
2019-04-14T16:26:50.865Z,75.33
2019-04-14T16:29:40.235Z,75.32
2019-04-14T16:32:41.324Z,75.22
2019-04-14T16:35:19.382Z,75.20
2019-04-14T16:37:50.328Z,75.25
2019-04-14T16:40:20.991Z,75.31
2019-04-14T16:42:51.512Z,75.36
2019-04-14T16:45:22.125Z,75.58
2019-04-14T16:47:52.532Z,75.62
2019-04-14T16:50:23.412Z,75.73
2019-04-14T16:53:12.541Z,75.83
2019-04-14T16:55:57.415Z,75.84
2019-04-14T16:58:33.277Z,75.84
2019-04-14T17:01:07.614Z,75.87
2019-04-14T17:03:37.191Z,75.96
2019-04-14T17:06:07.092Z,75.92
2019-04-14T17:08:37.452Z,75.79
2019-04-14T17:11:07.676Z,75.89
2019-04-14T17:13:41.029Z,75.95
2019-04-14T17:16:29.161Z,76.08
2019-04-14T17:19:18.733Z,76.15
2019-04-14T17:22:05.087Z,76.15
2019-04-14T17:24:55.213Z,76.19
2019-04-14T17:27:47.306Z,76.30
2019-04-14T17:30:43.189Z,76.47
2019-04-14T17:33:34.381Z,76.59
2019-04-14T17:36:29.751Z,76.77
2019-04-14T17:39:25.294Z,76.88
2019-04-14T17:42:11.465Z,77.00
2019-04-14T17:44:58.406Z,76.95
2019-04-14T17:47:41.557Z,76.99
2019-04-14T17:50:39.978Z,77.13
2019-04-14T17:53:17.303Z,77.26
2019-04-14T17:55:58.895Z,77.39
2019-04-14T17:58:42.665Z,77.49
2019-04-14T18:01:38.857Z,77.53
2019-04-14T18:04:44.791Z,77.53
2019-04-14T18:07:24.288Z,77.66
2019-04-14T18:10:14.215Z,77.61
2019-04-14T18:13:02.103Z,77.61
2019-04-14T18:15:51.193Z,77.64
2019-04-14T18:18:39.101Z,77.65
2019-04-14T18:21:12.867Z,77.74
2019-04-14T18:23:43.418Z,77.84
2019-04-14T18:26:13.725Z,77.82
2019-04-14T18:28:51.852Z,77.89
2019-04-14T18:31:46.908Z,77.98
2019-04-14T18:34:53.765Z,78.02
2019-04-14T18:37:37.361Z,77.97
2019-04-14T18:40:12.612Z,77.97
2019-04-14T18:43:20.664Z,77.93
2019-04-14T18:46:09.129Z,77.99
2019-04-14T18:48:45.000Z,77.96
2019-04-14T18:51:36.429Z,78.02
2019-04-14T18:54:26.130Z,78.10
2019-04-14T18:57:20.325Z,78.19
2019-04-14T19:00:10.223Z,78.23
2019-04-14T19:02:42.124Z,78.19
2019-04-14T19:05:12.367Z,78.28
2019-04-14T19:07:43.074Z,78.33
2019-04-14T19:10:13.323Z,78.46
2019-04-14T19:12:55.715Z,78.59
2019-04-14T19:15:33.565Z,78.57
2019-04-14T19:18:27.746Z,78.63
2019-04-14T19:21:18.163Z,78.87
2019-04-14T19:23:48.569Z,78.99
2019-04-14T19:26:20.429Z,79.02
2019-04-14T19:28:51.057Z,79.19
2019-04-14T19:31:21.587Z,79.20
2019-04-14T19:33:51.831Z,79.21
2019-04-14T19:36:22.137Z,79.19
2019-04-14T19:38:52.306Z,79.20
2019-04-14T19:41:22.762Z,79.21
2019-04-14T19:43:52.877Z,79.20
2019-04-14T19:46:22.985Z,79.21
2019-04-14T19:48:53.842Z,79.21
2019-04-14T19:51:23.979Z,79.20
2019-04-14T19:53:54.237Z,79.18
2019-04-14T19:56:24.113Z,79.17
2019-04-14T19:58:54.201Z,79.17
2019-04-14T20:01:24.273Z,79.20
2019-04-14T20:03:54.240Z,79.28
2019-04-14T20:06:24.488Z,79.34
2019-04-14T20:08:56.734Z,79.37
2019-04-14T20:11:26.832Z,79.47
2019-04-14T20:13:56.913Z,79.53
2019-04-14T20:16:52.347Z,79.56
2019-04-14T20:19:39.882Z,79.65
2019-04-14T20:22:35.253Z,79.72
2019-04-14T20:25:19.006Z,79.75
2019-04-14T20:28:10.935Z,79.84
2019-04-14T20:30:54.573Z,79.84
2019-04-14T20:33:24.694Z,79.87
2019-04-14T20:35:56.443Z,79.77
2019-04-14T20:38:26.700Z,79.73
2019-04-14T20:40:56.883Z,79.82
2019-04-14T20:43:27.173Z,79.75
2019-04-14T20:45:59.992Z,79.66
2019-04-14T20:48:30.047Z,79.69
2019-04-14T20:51:03.017Z,79.71
2019-04-14T20:53:33.129Z,79.73
2019-04-14T20:56:03.742Z,79.81
2019-04-14T20:58:33.704Z,79.82
2019-04-14T21:01:05.872Z,79.91
2019-04-14T21:03:43.772Z,79.96
2019-04-14T21:06:35.655Z,80.01
2019-04-14T21:09:32.617Z,79.90
2019-04-14T21:12:08.131Z,79.94
2019-04-14T21:14:53.638Z,79.83
2019-04-14T21:17:30.097Z,79.75
2019-04-14T21:20:25.508Z,79.73
2019-04-14T21:23:05.849Z,79.67
2019-04-14T21:26:00.678Z,79.70
2019-04-14T21:28:49.301Z,79.72
2019-04-14T21:31:24.512Z,79.76
2019-04-14T21:34:13.319Z,79.83
2019-04-14T21:36:51.729Z,79.84
2019-04-14T21:39:40.757Z,79.79
2019-04-14T21:42:11.250Z,79.79
2019-04-14T21:44:41.728Z,79.68
2019-04-14T21:47:12.214Z,79.79
2019-04-14T21:49:42.296Z,79.79
2019-04-14T21:52:27.802Z,79.85
2019-04-14T21:55:01.625Z,79.87
2019-04-14T21:57:50.629Z,79.88
2019-04-14T22:01:06.361Z,79.81
2019-04-14T22:03:46.244Z,79.74
2019-04-14T22:06:28.861Z,79.73
2019-04-14T22:09:05.833Z,79.76
2019-04-14T22:11:39.263Z,79.79
2019-04-14T22:14:09.505Z,79.75
2019-04-14T22:16:39.638Z,79.68
2019-04-14T22:19:09.944Z,79.73
2019-04-14T22:21:40.558Z,79.84
2019-04-14T22:24:11.147Z,79.88
2019-04-14T22:26:42.883Z,79.92
2019-04-14T22:29:13.595Z,80.05
2019-04-14T22:31:44.047Z,80.10
2019-04-14T22:34:14.282Z,80.24
2019-04-14T22:36:44.754Z,80.30
2019-04-14T22:39:16.541Z,80.32
2019-04-14T22:41:46.965Z,80.37
2019-04-14T22:44:17.136Z,80.29
2019-04-14T22:46:47.302Z,80.32
2019-04-14T22:49:17.670Z,80.22
2019-04-14T22:51:47.819Z,80.17
2019-04-14T22:54:17.928Z,80.16
2019-04-14T22:56:48.114Z,80.25
2019-04-14T22:59:18.585Z,80.30
2019-04-14T23:01:51.835Z,80.25
2019-04-14T23:04:52.021Z,80.34
2019-04-14T23:07:33.071Z,80.28
2019-04-14T23:10:22.121Z,80.35
2019-04-14T23:13:01.893Z,80.44
2019-04-14T23:16:00.293Z,80.51
2019-04-14T23:18:50.723Z,80.63
2019-04-14T23:21:36.892Z,80.75
2019-04-14T23:24:28.505Z,80.79
2019-04-14T23:26:58.615Z,80.78
2019-04-14T23:29:28.939Z,80.80
2019-04-14T23:31:59.735Z,80.91
2019-04-14T23:34:29.770Z,80.90
2019-04-14T23:36:59.733Z,80.94
2019-04-14T23:39:30.033Z,81.04
2019-04-14T23:42:00.123Z,81.04
2019-04-14T23:44:30.343Z,80.94
2019-04-14T23:47:01.830Z,81.00
2019-04-14T23:49:32.481Z,80.99
2019-04-14T23:52:02.819Z,81.02
2019-04-14T23:54:33.040Z,81.02
2019-04-14T23:57:05.884Z,80.68
2019-04-14T23:59:34.724Z,80.68
